Observation data for Plainview on 11/07/2019      Previous  Date       Current Mesonet Observations  Soil Data  Daily Summary Page  Observations in Plain Language
KPVS 070600Z 22005KT 13/13 A3017 RMK A01 T01340131  RH  100%=      5-min Rain = 0
KPVS 070605Z 22005KT 13/13 A3017 RMK A01 T01340131  RH  100%=      5-min Rain = 0
KPVS 070610Z 33009G23KT 13/13 A3018 RMK A01 T01310128  RH  100%=      5-min Rain = 0
KPVS 070615Z 35013G21KT 09/08 A302 RMK A01 T00920084  RH  096%=      5-min Rain = 0
KPVS 070620Z 36019G26KT 07/07 A302 RMK A01 T00730067  RH  097%=      5-min Rain = 0
KPVS 070625Z 00018G24KT 07/06 A3021 RMK A01 T00650058  RH  097%=      5-min Rain = 0
KPVS 070630Z 36018G24KT 06/05 A3021 RMK A01 T00590050  RH  095%=      5-min Rain = 0
KPVS 070635Z 00018G26KT 05/04 A3021 RMK A01 T00530043  RH  094%=      5-min Rain = 0
KPVS 070640Z 01015G22KT 05/04 A3021 RMK A01 T00510040  RH  094%=      5-min Rain = 0
KPVS 070645Z 00018G24KT 05/04 A3021 RMK A01 T00490037  RH  093%=      5-min Rain = 0
KPVS 070650Z 36019G26KT 05/03 A3021 RMK A01 T00470034  RH  093%=      5-min Rain = 0
KPVS 070655Z 36017G22KT 05/03 A3021 RMK A01 T00450033  RH  093%=      5-min Rain = 0
KPVS 070700Z 36016G23KT 04/03 A3021 RMK A01 T00410030  RH  093%=      5-min Rain = 0
KPVS 070705Z 01020G30KT 04/03 A3021 RMK A01 T00380027  RH  093%=      5-min Rain = 0
KPVS 070710Z 01017G24KT 04/03 A3021 RMK A01 T00360025  RH  094%=      5-min Rain = 0
KPVS 070715Z 00018G24KT 04/02 A3021 RMK A01 T00350024  RH  094%=      5-min Rain = 0
KPVS 070720Z 01018G26KT 03/02 A3022 RMK A01 T00340024  RH  094%=      5-min Rain = 0
KPVS 070725Z 01019G28KT 03/02 A3022 RMK A01 T00320023  RH  095%=      5-min Rain = 0
KPVS 070730Z 01019G27KT 03/02 A3023 RMK A01 T00310022  RH  095%=      5-min Rain = 0
KPVS 070735Z 01020G27KT 03/02 A3023 RMK A01 T00280019  RH  095%=      5-min Rain = 0
KPVS 070740Z 00019G26KT 03/02 A3023 RMK A01 T00270019  RH  095%=      5-min Rain = 0
KPVS 070745Z 36020G27KT 03/02 A3024 RMK A01 T00250017  RH  095%=      5-min Rain = 0
KPVS 070750Z 36019G28KT 02/02 A3025 RMK A01 T00230016  RH  096%=      5-min Rain = 0
KPVS 070755Z 35019G26KT 02/02 A3026 RMK A01 T00220015  RH  097%=      5-min Rain = 0
KPVS 070800Z 36019G27KT 02/02 A3027 RMK A01 T00210015  RH  097%=      5-min Rain = 0
KPVS 070805Z 36020G26KT 02/01 A3028 RMK A01 T00190013  RH  097%=      5-min Rain = 0
KPVS 070810Z 35019G29KT 02/01 A3029 RMK A01 T00180012  RH  097%=      5-min Rain = 0
KPVS 070815Z 36019G30KT 02/01 A303 RMK A01 T00150010  RH  098%=      5-min Rain = 0
KPVS 070820Z 36016G24KT 02/01 A303 RMK A01 T00150010  RH  098%=      5-min Rain = 0
KPVS 070825Z 36020G29KT 01/01 A3029 RMK A01 T00140010  RH  098%=      5-min Rain = 0
KPVS 070830Z 00015G24KT 01/01 A3029 RMK A01 T00130010  RH  099%=      5-min Rain = 0
KPVS 070835Z 36017G26KT 01/01 A3029 RMK A01 T00130010  RH  099%=      5-min Rain = 0
KPVS 070840Z 00019G26KT 01/01 A3029 RMK A01 T00110008  RH  099%=      5-min Rain = 0
KPVS 070845Z 00017G26KT 01/01 A3029 RMK A01 T00100008  RH  100%=      5-min Rain = 0
KPVS 070850Z 00018G26KT 01/01 A3029 RMK A01 T00100009  RH  100%=      5-min Rain = 0
KPVS 070855Z 35017G25KT 01/01 A3028 RMK A01 T00090008  RH  100%=      5-min Rain = 0
KPVS 070900Z 36019G29KT 01/01 A3028 RMK A01 T00080006  RH  100%=      5-min Rain = 0
KPVS 070905Z 00020G26KT 01/01 A3028 RMK A01 T00080006  RH  100%=      5-min Rain = 0
KPVS 070910Z 01018G25KT 01/01 A3028 RMK A01 T00080006  RH  100%=      5-min Rain = 0
KPVS 070915Z 00019KT 01/01 A3028 RMK A01 T00080006  RH  100%=      5-min Rain = 0
KPVS 070920Z 36020G29KT 01/01 A3028 RMK A01 T00070005  RH  100%=      5-min Rain = 0
KPVS 070925Z 36018G23KT 01/00 A3029 RMK A01 T00060004  RH  100%=      5-min Rain = 0
KPVS 070930Z 35019G27KT 01/00 A3029 RMK A01 T00050003  RH  100%=      5-min Rain = 0
KPVS 070935Z 36020G28KT 00/00 A3029 RMK A01 T00040003  RH  100%=      5-min Rain = 0
KPVS 070940Z 36020G25KT 00/00 A3028 RMK A01 T00040002  RH  100%=      5-min Rain = 0
KPVS 070945Z 36019G27KT 00/00 A3029 RMK A01 T00020001  RH  100%=      5-min Rain = 0.01
KPVS 070950Z 36019G29KT 00/00 A303 RMK A01 T00020000  RH  100%=      5-min Rain = 0
KPVS 070955Z 36018G28KT 00/00 A303 RMK A01 T00020000  RH  100%=      5-min Rain = 0
KPVS 071000Z 35016G24KT 00/00 A303 RMK A01 T00020001  RH  100%=      5-min Rain = 0
KPVS 071005Z 00019G27KT 00/M00 A303 RMK A01 T00011001  RH  100%=      5-min Rain = 0
KPVS 071010Z 01020G29KT M00/M00 A3029 RMK A01 T10011003  RH  100%=      5-min Rain = 0
KPVS 071015Z 01018G24KT M00/M00 A3028 RMK A01 T10011003  RH  100%=      5-min Rain = 0
KPVS 071020Z 01017G26KT M00/M00 A3028 RMK A01 T10011002  RH  100%=      5-min Rain = 0
KPVS 071025Z 01018G26KT M00/M00 A3028 RMK A01 T10021003  RH  100%=      5-min Rain = 0
KPVS 071030Z 01017G26KT M00/M00 A3028 RMK A01 T10021003  RH  100%=      5-min Rain = 0
KPVS 071035Z 00017G25KT M00/M00 A3029 RMK A01 T10021004  RH  100%=      5-min Rain = 0
KPVS 071040Z 36019G27KT M00/M00 A303 RMK A01 T10021004  RH  100%=      5-min Rain = 0
KPVS 071045Z 36017G25KT M00/M00 A303 RMK A01 T10021004  RH  100%=      5-min Rain = 0.01
KPVS 071050Z 36019G27KT M00/M01 A303 RMK A01 T10031005  RH  100%=      5-min Rain = 0
KPVS 071055Z 35020G29KT M00/M01 A3031 RMK A01 T10041006  RH  100%=      5-min Rain = 0
KPVS 071100Z 36019G25KT M01/M01 A303 RMK A01 T10051007  RH  100%=      5-min Rain = 0
KPVS 071105Z 00020G26KT M01/M01 A303 RMK A01 T10061007  RH  100%=      5-min Rain = 0
KPVS 071110Z 00020G27KT M01/M01 A303 RMK A01 T10071008  RH  100%=      5-min Rain = 0
KPVS 071115Z 36018G26KT M01/M01 A3031 RMK A01 T10071008  RH  100%=      5-min Rain = 0
KPVS 071120Z 36018G28KT M01/M01 A3032 RMK A01 T10071008  RH  100%=      5-min Rain = 0
KPVS 071125Z 36021G29KT M01/M01 A3032 RMK A01 T10071009  RH  100%=      5-min Rain = 0
KPVS 071130Z 00021G28KT M01/M01 A3031 RMK A01 T10081009  RH  100%=      5-min Rain = 0
KPVS 071135Z 00021G28KT M01/M01 A3031 RMK A01 T10081010  RH  100%=      5-min Rain = 0
KPVS 071140Z 00020G30KT M01/M01 A3032 RMK A01 T10081010  RH  100%=      5-min Rain = 0
KPVS 071145Z 36018G28KT M01/M01 A3033 RMK A01 T10081010  RH  100%=      5-min Rain = 0
KPVS 071150Z 36019G28KT M01/M01 A3034 RMK A01 T10091011  RH  099%=      5-min Rain = 0
KPVS 071155Z 36020G28KT M01/M01 A3034 RMK A01 T10091012  RH  099%=      5-min Rain = 0
KPVS 071200Z 00019G25KT M01/M01 A3034 RMK A01 T10091011  RH  099%=      5-min Rain = 0
KPVS 071205Z 01017G23KT M01/M01 A3034 RMK A01 T10091011  RH  099%=      5-min Rain = 0
KPVS 071210Z 01019G27KT M01/M01 A3034 RMK A01 T10091012  RH  099%=      5-min Rain = 0
KPVS 071215Z 00018G27KT M01/M01 A3035 RMK A01 T10091012  RH  099%=      5-min Rain = 0
KPVS 071220Z 01015G22KT M01/M01 A3035 RMK A01 T10081011  RH  099%=      5-min Rain = 0
KPVS 071225Z 36015G21KT M01/M01 A3035 RMK A01 T10081011  RH  099%=      5-min Rain = 0
KPVS 071230Z 36016G22KT M01/M01 A3036 RMK A01 T10081011  RH  099%=      5-min Rain = 0
KPVS 071235Z 01019G26KT M01/M01 A3036 RMK A01 T10091012  RH  099%=      5-min Rain = 0
KPVS 071240Z 01015G24KT M01/M01 A3035 RMK A01 T10081011  RH  099%=      5-min Rain = 0
KPVS 071245Z 02017G23KT M01/M01 A3035 RMK A01 T10091013  RH  099%=      5-min Rain = 0
KPVS 071250Z 01018G25KT M01/M01 A3035 RMK A01 T10101013  RH  099%=      5-min Rain = 0
KPVS 071255Z 01017G26KT M01/M01 A3036 RMK A01 T10101014  RH  098%=      5-min Rain = 0
KPVS 071300Z 01017G26KT M01/M02 A3036 RMK A01 T10111015  RH  098%=      5-min Rain = 0
KPVS 071305Z 01016G24KT M01/M02 A3036 RMK A01 T10111015  RH  098%=      5-min Rain = 0
KPVS 071310Z 00018G25KT M01/M01 A3036 RMK A01 T10111014  RH  099%=      5-min Rain = 0
KPVS 071315Z 00017G22KT M01/M02 A3037 RMK A01 T10111015  RH  099%=      5-min Rain = 0
KPVS 071320Z 00019G25KT M01/M02 A3037 RMK A01 T10121016  RH  099%=      5-min Rain = 0
KPVS 071325Z 01016G22KT M01/M02 A3038 RMK A01 T10121016  RH  099%=      5-min Rain = 0
KPVS 071330Z 01015G22KT M01/M02 A3039 RMK A01 T10131017  RH  098%=      5-min Rain = 0
KPVS 071335Z 01015G22KT M01/M02 A3039 RMK A01 T10131017  RH  098%=      5-min Rain = 0
KPVS 071340Z 01014G20KT M01/M02 A3039 RMK A01 T10131017  RH  098%=      5-min Rain = 0
KPVS 071345Z 01016G21KT M01/M02 A304 RMK A01 T10131016  RH  098%=      5-min Rain = 0
KPVS 071350Z 01014G21KT M01/M02 A304 RMK A01 T10131017  RH  098%=      5-min Rain = 0
KPVS 071355Z 01018G24KT M01/M02 A3039 RMK A01 T10131016  RH  098%=      5-min Rain = 0
KPVS 071400Z 01017G23KT M01/M02 A304 RMK A01 T10131017  RH  098%=      5-min Rain = 0
KPVS 071405Z 01018G27KT M01/M02 A304 RMK A01 T10131017  RH  098%=      5-min Rain = 0
KPVS 071410Z 01016G24KT M01/M02 A304 RMK A01 T10131017  RH  098%=      5-min Rain = 0
KPVS 071415Z 01015G21KT M01/M02 A304 RMK A01 T10131017  RH  098%=      5-min Rain = 0
KPVS 071420Z 01016G24KT M01/M02 A304 RMK A01 T10131018  RH  098%=      5-min Rain = 0
KPVS 071425Z 01015G21KT M01/M02 A3041 RMK A01 T10131018  RH  098%=      5-min Rain = 0
KPVS 071430Z 01017G24KT M01/M02 A3041 RMK A01 T10131017  RH  098%=      5-min Rain = 0
KPVS 071435Z 01015G20KT M01/M02 A3042 RMK A01 T10131017  RH  098%=      5-min Rain = 0
KPVS 071440Z 01012G17KT M01/M02 A3042 RMK A01 T10121017  RH  098%=      5-min Rain = 0
KPVS 071445Z 01013G19KT M01/M02 A3043 RMK A01 T10121016  RH  098%=      5-min Rain = 0
KPVS 071450Z 00013G18KT M01/M02 A3043 RMK A01 T10111015  RH  098%=      5-min Rain = 0
KPVS 071455Z 00014KT M01/M02 A3043 RMK A01 T10121016  RH  098%=      5-min Rain = 0
KPVS 071500Z 01016G22KT M01/M02 A3043 RMK A01 T10121016  RH  098%=      5-min Rain = 0
KPVS 071505Z 01013G18KT M01/M02 A3044 RMK A01 T10121016  RH  098%=      5-min Rain = 0
KPVS 071510Z 01014G19KT M01/M02 A3044 RMK A01 T10121016  RH  098%=      5-min Rain = 0
KPVS 071515Z 02016G22KT M01/M02 A3043 RMK A01 T10121016  RH  098%=      5-min Rain = 0
KPVS 071520Z 01013G19KT M01/M02 A3044 RMK A01 T10111016  RH  098%=      5-min Rain = 0
KPVS 071525Z 01015G21KT M01/M02 A3043 RMK A01 T10111016  RH  098%=      5-min Rain = 0
KPVS 071530Z 01012G17KT M01/M02 A3043 RMK A01 T10121016  RH  098%=      5-min Rain = 0
KPVS 071535Z 01012G17KT M01/M02 A3043 RMK A01 T10111016  RH  098%=      5-min Rain = 0
KPVS 071540Z 00012G17KT M01/M02 A3044 RMK A01 T10111015  RH  098%=      5-min Rain = 0
KPVS 071545Z 01014G19KT M01/M02 A3044 RMK A01 T10111016  RH  098%=      5-min Rain = 0
KPVS 071550Z 02014G19KT M01/M02 A3044 RMK A01 T10121016  RH  098%=      5-min Rain = 0
KPVS 071555Z 02013G18KT M01/M02 A3044 RMK A01 T10111016  RH  098%=      5-min Rain = 0
KPVS 071600Z 01011G18KT M01/M02 A3044 RMK A01 T10101015  RH  098%=      5-min Rain = 0
KPVS 071605Z 00013G18KT M01/M02 A3045 RMK A01 T10101015  RH  098%=      5-min Rain = 0
KPVS 071610Z 00014G19KT M01/M02 A3046 RMK A01 T10101015  RH  098%=      5-min Rain = 0
KPVS 071615Z 36012G18KT M01/M01 A3046 RMK A01 T10091014  RH  098%=      5-min Rain = 0
KPVS 071620Z 00013G18KT M01/M01 A3046 RMK A01 T10091014  RH  098%=      5-min Rain = 0
KPVS 071625Z 01013G18KT M01/M01 A3046 RMK A01 T10091014  RH  097%=      5-min Rain = 0
KPVS 071630Z 01011KT M01/M01 A3045 RMK A01 T10081013  RH  098%=      5-min Rain = 0
KPVS 071635Z 02011G16KT M01/M01 A3045 RMK A01 T10081013  RH  098%=      5-min Rain = 0
KPVS 071640Z 01010G17KT M01/M01 A3046 RMK A01 T10081012  RH  098%=      5-min Rain = 0
KPVS 071645Z 00010G16KT M01/M01 A3047 RMK A01 T10081012  RH  098%=      5-min Rain = 0
KPVS 071650Z 01013KT M01/M01 A3047 RMK A01 T10081013  RH  098%=      5-min Rain = 0
KPVS 071655Z 01012G17KT M01/M01 A3047 RMK A01 T10081012  RH  098%=      5-min Rain = 0
KPVS 071700Z 02013G19KT M01/M01 A3047 RMK A01 T10081012  RH  098%=      5-min Rain = 0
KPVS 071705Z 02011G16KT M01/M01 A3047 RMK A01 T10071011  RH  098%=      5-min Rain = 0
KPVS 071710Z 02012KT M01/M01 A3046 RMK A01 T10061010  RH  098%=      5-min Rain = 0
KPVS 071715Z 01014KT M01/M01 A3046 RMK A01 T10071010  RH  099%=      5-min Rain = 0
KPVS 071720Z 01012G18KT M01/M01 A3046 RMK A01 T10071010  RH  099%=      5-min Rain = 0
KPVS 071725Z 01010G16KT M01/M01 A3046 RMK A01 T10061008  RH  100%=      5-min Rain = 0
KPVS 071730Z 01013G20KT M01/M01 A3046 RMK A01 T10071009  RH  099%=      5-min Rain = 0
KPVS 071735Z 01012G17KT M01/M01 A3046 RMK A01 T10071009  RH  100%=      5-min Rain = 0
KPVS 071740Z 00014G20KT M01/M01 A3046 RMK A01 T10091011  RH  100%=      5-min Rain = 0
KPVS 071745Z 01013G19KT M01/M01 A3046 RMK A01 T10101012  RH  100%=      5-min Rain = 0
KPVS 071750Z 01012G17KT M01/M01 A3046 RMK A01 T10101012  RH  100%=      5-min Rain = 0
KPVS 071755Z 01013KT M01/M01 A3046 RMK A01 T10111012  RH  100%=      5-min Rain = 0
KPVS 071800Z 02010KT M01/M01 A3046 RMK A01 T10101012  RH  100%=      5-min Rain = 0
KPVS 071805Z 02013G19KT M01/M01 A3046 RMK A01 T10101012  RH  100%=      5-min Rain = 0
KPVS 071810Z 02012G19KT M01/M01 A3045 RMK A01 T10101012  RH  100%=      5-min Rain = 0
KPVS 071815Z 02012G18KT M01/M01 A3046 RMK A01 T10111014  RH  099%=      5-min Rain = 0
KPVS 071820Z 02010G15KT M01/M01 A3046 RMK A01 T10091011  RH  100%=      5-min Rain = 0
KPVS 071825Z 03012G17KT M01/M01 A3046 RMK A01 T10091012  RH  099%=      5-min Rain = 0
KPVS 071830Z 00011G16KT M01/M01 A3046 RMK A01 T10091012  RH  099%=      5-min Rain = 0
KPVS 071835Z 01012KT M01/M01 A3046 RMK A01 T10101013  RH  099%=      5-min Rain = 0
KPVS 071840Z 01011KT M01/M01 A3045 RMK A01 T10101012  RH  099%=      5-min Rain = 0
KPVS 071845Z 01010KT M01/M01 A3045 RMK A01 T10101013  RH  099%=      5-min Rain = 0
KPVS 071850Z 00013KT M01/M01 A3045 RMK A01 T10111013  RH  099%=      5-min Rain = 0
KPVS 071855Z 01013KT M01/M01 A3045 RMK A01 T10111014  RH  099%=      5-min Rain = 0
KPVS 071900Z 01011G16KT M01/M01 A3044 RMK A01 T10091012  RH  099%=      5-min Rain = 0
KPVS 071905Z 01012G18KT M01/M01 A3043 RMK A01 T10101013  RH  099%=      5-min Rain = 0
KPVS 071910Z 00012G18KT M01/M01 A3044 RMK A01 T10091012  RH  099%=      5-min Rain = 0
KPVS 071915Z 01013G18KT M01/M01 A3043 RMK A01 T10101013  RH  099%=      5-min Rain = 0
KPVS 071920Z 01012KT M01/M01 A3043 RMK A01 T10101013  RH  099%=      5-min Rain = 0
KPVS 071925Z 01014KT M01/M01 A3042 RMK A01 T10101014  RH  099%=      5-min Rain = 0
KPVS 071930Z 01010G16KT M01/M01 A3042 RMK A01 T10101013  RH  099%=      5-min Rain = 0
KPVS 071935Z 01011G16KT M01/M01 A3043 RMK A01 T10091012  RH  099%=      5-min Rain = 0
KPVS 071940Z 01012G17KT M01/M01 A3042 RMK A01 T10091012  RH  099%=      5-min Rain = 0
KPVS 071945Z 00012KT M01/M01 A3042 RMK A01 T10101012  RH  099%=      5-min Rain = 0
KPVS 071950Z 36012G18KT M01/M01 A3043 RMK A01 T10111013  RH  099%=      5-min Rain = 0
KPVS 071955Z 00012KT M01/M01 A3043 RMK A01 T10111013  RH  099%=      5-min Rain = 0
KPVS 072000Z 01009G14KT M01/M01 A3043 RMK A01 T10101012  RH  100%=      5-min Rain = 0
KPVS 072005Z 36010G15KT M01/M01 A3043 RMK A01 T10091011  RH  100%=      5-min Rain = 0
KPVS 072010Z 00011G18KT M01/M01 A3043 RMK A01 T10101013  RH  100%=      5-min Rain = 0
KPVS 072015Z 00009KT M01/M01 A3043 RMK A01 T10091011  RH  100%=      5-min Rain = 0
KPVS 072020Z 36009KT M01/M01 A3042 RMK A01 T10101012  RH  100%=      5-min Rain = 0
KPVS 072025Z 01011KT M01/M01 A3042 RMK A01 T10101013  RH  100%=      5-min Rain = 0
KPVS 072030Z 01010KT M01/M01 A3042 RMK A01 T10101012  RH  100%=      5-min Rain = 0
KPVS 072035Z 01009G14KT M01/M01 A3043 RMK A01 T10091011  RH  100%=      5-min Rain = 0
KPVS 072040Z 36011G16KT M01/M01 A3042 RMK A01 T10101012  RH  099%=      5-min Rain = 0
KPVS 072045Z 00011KT M01/M01 A3042 RMK A01 T10111013  RH  100%=      5-min Rain = 0
KPVS 072050Z 02010KT M01/M01 A3042 RMK A01 T10091011  RH  100%=      5-min Rain = 0
KPVS 072055Z 36011KT M01/M01 A3042 RMK A01 T10091011  RH  100%=      5-min Rain = 0
KPVS 072100Z 00009KT M01/M01 A3042 RMK A01 T10091011  RH  100%=      5-min Rain = 0
KPVS 072105Z 36010G15KT M01/M01 A3042 RMK A01 T10091011  RH  100%=      5-min Rain = 0
KPVS 072110Z 01011KT M01/M01 A3042 RMK A01 T10091011  RH  100%=      5-min Rain = 0
KPVS 072115Z 01011KT M01/M01 A3041 RMK A01 T10091010  RH  100%=      5-min Rain = 0
KPVS 072120Z 36010KT M01/M01 A3042 RMK A01 T10081010  RH  100%=      5-min Rain = 0
KPVS 072125Z 36009G14KT M01/M01 A3042 RMK A01 T10091010  RH  100%=      5-min Rain = 0
KPVS 072130Z 35009KT M01/M01 A3043 RMK A01 T10081010  RH  100%=      5-min Rain = 0
KPVS 072135Z 35010KT M01/M01 A3043 RMK A01 T10091011  RH  100%=      5-min Rain = 0
KPVS 072140Z 36008KT M01/M01 A3043 RMK A01 T10081010  RH  100%=      5-min Rain = 0
KPVS 072145Z 01009KT M01/M01 A3042 RMK A01 T10071009  RH  100%=      5-min Rain = 0
KPVS 072150Z 01008KT M01/M01 A3042 RMK A01 T10081009  RH  100%=      5-min Rain = 0
KPVS 072155Z 01009KT M01/M01 A3042 RMK A01 T10071009  RH  100%=      5-min Rain = 0
KPVS 072200Z 01009KT M01/M01 A3042 RMK A01 T10071009  RH  100%=      5-min Rain = 0
KPVS 072205Z 01007KT M01/M01 A3042 RMK A01 T10061008  RH  100%=      5-min Rain = 0
KPVS 072210Z 02007KT M01/M01 A3042 RMK A01 T10061007  RH  100%=      5-min Rain = 0
KPVS 072215Z 01008KT M01/M01 A3042 RMK A01 T10051006  RH  100%=      5-min Rain = 0
KPVS 072220Z 00008KT M01/M01 A3042 RMK A01 T10051007  RH  100%=      5-min Rain = 0
KPVS 072225Z 00008KT M01/M01 A3042 RMK A01 T10051007  RH  100%=      5-min Rain = 0
KPVS 072230Z 01008KT M01/M01 A3042 RMK A01 T10051007  RH  100%=      5-min Rain = 0
KPVS 072235Z 01007KT M01/M01 A3042 RMK A01 T10051007  RH  100%=      5-min Rain = 0
KPVS 072240Z 00006KT M01/M01 A3043 RMK A01 T10051006  RH  100%=      5-min Rain = 0
KPVS 072245Z 01007KT M01/M01 A3042 RMK A01 T10051006  RH  100%=      5-min Rain = 0
KPVS 072250Z 02007KT M01/M01 A3043 RMK A01 T10051006  RH  100%=      5-min Rain = 0
KPVS 072255Z 00006KT M00/M01 A3043 RMK A01 T10041006  RH  100%=      5-min Rain = 0
KPVS 072300Z 01007KT M00/M01 A3043 RMK A01 T10041006  RH  100%=      5-min Rain = 0
KPVS 072305Z 02006KT M01/M01 A3042 RMK A01 T10051006  RH  100%=      5-min Rain = 0
KPVS 072310Z 01007KT M00/M01 A3042 RMK A01 T10041006  RH  100%=      5-min Rain = 0
KPVS 072315Z 01006KT M00/M01 A3043 RMK A01 T10041006  RH  100%=      5-min Rain = 0
KPVS 072320Z 01007KT M00/M01 A3043 RMK A01 T10041005  RH  100%=      5-min Rain = 0
KPVS 072325Z 36006KT M00/M01 A3043 RMK A01 T10041006  RH  100%=      5-min Rain = 0
KPVS 072330Z 00006KT M00/M01 A3043 RMK A01 T10041006  RH  100%=      5-min Rain = 0
KPVS 072335Z 36006KT M00/M01 A3043 RMK A01 T10041005  RH  100%=      5-min Rain = 0
KPVS 072340Z 36007KT M00/M01 A3043 RMK A01 T10041005  RH  100%=      5-min Rain = 0
KPVS 072345Z 00006KT M00/M01 A3043 RMK A01 T10041005  RH  100%=      5-min Rain = 0
KPVS 072350Z 00005KT M01/M01 A3043 RMK A01 T10051006  RH  100%=      5-min Rain = 0
KPVS 072355Z 00006KT M01/M01 A3043 RMK A01 T10051006  RH  100%=      5-min Rain = 0
KPVS 080000Z 36005KT M01/M01 A3043 RMK A01 T10051006  RH  100%=      5-min Rain = 0
KPVS 080005Z 35005KT M01/M01 A3043 RMK A01 T10051006  RH  100%=      5-min Rain = 0
KPVS 080010Z 36006KT M01/M01 A3044 RMK A01 T10051006  RH  100%=      5-min Rain = 0
KPVS 080015Z 36006KT M00/M01 A3044 RMK A01 T10041006  RH  100%=      5-min Rain = 0
KPVS 080020Z 36005KT M00/M01 A3044 RMK A01 T10041006  RH  100%=      5-min Rain = 0
KPVS 080025Z 00007KT M00/M01 A3044 RMK A01 T10041005  RH  100%=      5-min Rain = 0
KPVS 080030Z 01005KT M00/M01 A3044 RMK A01 T10031005  RH  100%=      5-min Rain = 0
KPVS 080035Z 01006KT M00/M00 A3044 RMK A01 T10031004  RH  100%=      5-min Rain = 0
KPVS 080040Z 01006KT M00/M01 A3044 RMK A01 T10031005  RH  100%=      5-min Rain = 0
KPVS 080045Z 01006KT M00/M00 A3044 RMK A01 T10021004  RH  100%=      5-min Rain = 0
KPVS 080050Z 01007KT M00/M00 A3043 RMK A01 T10021004  RH  099%=      5-min Rain = 0
KPVS 080055Z 01007KT M00/M00 A3043 RMK A01 T10021004  RH  099%=      5-min Rain = 0
KPVS 080100Z 02005KT M00/M00 A3043 RMK A01 T10011004  RH  099%=      5-min Rain = 0
KPVS 080105Z 02006KT M00/M01 A3044 RMK A01 T10021006  RH  099%=      5-min Rain = 0
KPVS 080110Z 02005KT M00/M01 A3044 RMK A01 T10021007  RH  098%=      5-min Rain = 0
KPVS 080115Z 02004KT M00/M01 A3044 RMK A01 T10021006  RH  098%=      5-min Rain = 0
KPVS 080120Z 03004KT M00/M01 A3044 RMK A01 T10011006  RH  098%=      5-min Rain = 0
KPVS 080125Z 02005KT M00/M01 A3044 RMK A01 T10011006  RH  098%=      5-min Rain = 0
KPVS 080130Z 03005KT M00/M01 A3044 RMK A01 T10011006  RH  097%=      5-min Rain = 0
KPVS 080135Z 02004KT 00/01 A3044 RMK A01 T000000-5  RH  097%=      5-min Rain = 0
KPVS 080140Z 01005KT 00/01 A3044 RMK A01 T000000-6  RH  097%=      5-min Rain = 0
KPVS 080145Z 00003KT 00/01 A3045 RMK A01 T000000-5  RH  097%=      5-min Rain = 0
KPVS 080150Z 01004KT 00/M01 A3045 RMK A01 T00011005  RH  097%=      5-min Rain = 0
KPVS 080155Z 03005KT 00/M01 A3045 RMK A01 T00011005  RH  097%=      5-min Rain = 0
KPVS 080200Z 03006KT 00/01 A3044 RMK A01 T000000-6  RH  097%=      5-min Rain = 0
KPVS 080205Z 02006KT 00/M01 A3045 RMK A01 T00011006  RH  096%=      5-min Rain = 0
KPVS 080210Z 01004KT 00/M01 A3045 RMK A01 T00011006  RH  096%=      5-min Rain = 0
KPVS 080215Z 00005KT 00/M01 A3045 RMK A01 T00011005  RH  096%=      5-min Rain = 0
KPVS 080220Z 35004KT 00/M01 A3045 RMK A01 T00021005  RH  097%=      5-min Rain = 0
KPVS 080225Z 00005KT 00/M00 A3045 RMK A01 T00021004  RH  097%=      5-min Rain = 0
KPVS 080230Z 01007KT 00/M01 A3045 RMK A01 T00021005  RH  096%=      5-min Rain = 0
KPVS 080235Z 02006KT 00/M01 A3044 RMK A01 T00021005  RH  096%=      5-min Rain = 0
KPVS 080240Z 02004KT 00/M01 A3044 RMK A01 T00021006  RH  096%=      5-min Rain = 0
KPVS 080245Z 02004KT 00/M01 A3045 RMK A01 T00021006  RH  096%=      5-min Rain = 0
KPVS 080250Z 03005KT 00/M01 A3045 RMK A01 T00021007  RH  095%=      5-min Rain = 0
KPVS 080255Z 02005KT 00/M01 A3045 RMK A01 T00021007  RH  095%=      5-min Rain = 0
KPVS 080300Z 02004KT 00/M01 A3045 RMK A01 T00021007  RH  095%=      5-min Rain = 0
KPVS 080305Z 02004KT 00/M01 A3045 RMK A01 T00031006  RH  095%=      5-min Rain = 0
KPVS 080310Z 01005KT 00/M01 A3045 RMK A01 T00031006  RH  095%=      5-min Rain = 0
KPVS 080315Z 02006KT 00/M01 A3045 RMK A01 T00031006  RH  095%=      5-min Rain = 0
KPVS 080320Z 02005KT 00/M01 A3045 RMK A01 T00031006  RH  095%=      5-min Rain = 0
KPVS 080325Z 01005KT 00/M01 A3045 RMK A01 T00031006  RH  095%=      5-min Rain = 0
KPVS 080330Z 00005KT 00/M01 A3045 RMK A01 T00031006  RH  095%=      5-min Rain = 0
KPVS 080335Z 01005KT 00/M01 A3046 RMK A01 T00031006  RH  095%=      5-min Rain = 0
KPVS 080340Z 01005KT 00/M01 A3045 RMK A01 T00031006  RH  095%=      5-min Rain = 0
KPVS 080345Z 01004KT 00/M01 A3045 RMK A01 T00041006  RH  094%=      5-min Rain = 0
KPVS 080350Z 01006KT 00/M01 A3046 RMK A01 T00031007  RH  094%=      5-min Rain = 0
KPVS 080355Z 03004KT 00/M01 A3046 RMK A01 T00041008  RH  093%=      5-min Rain = 0
KPVS 080400Z 02003KT 00/M01 A3046 RMK A01 T00041008  RH  093%=      5-min Rain = 0
KPVS 080405Z 02003KT 01/M01 A3046 RMK A01 T00051007  RH  093%=      5-min Rain = 0
KPVS 080410Z 03003KT 01/M01 A3046 RMK A01 T00051008  RH  093%=      5-min Rain = 0
KPVS 080415Z 00003KT 01/M01 A3046 RMK A01 T00051007  RH  093%=      5-min Rain = 0
KPVS 080420Z 00004KT 01/M01 A3047 RMK A01 T00051007  RH  093%=      5-min Rain = 0
KPVS 080425Z 02004KT 01/M01 A3047 RMK A01 T00061006  RH  093%=      5-min Rain = 0
KPVS 080430Z 01004KT 01/M01 A3046 RMK A01 T00051006  RH  093%=      5-min Rain = 0
KPVS 080435Z 03004KT 01/M01 A3047 RMK A01 T00061006  RH  093%=      5-min Rain = 0
KPVS 080440Z 03004KT 01/M01 A3046 RMK A01 T00061006  RH  093%=      5-min Rain = 0
KPVS 080445Z 03003KT 01/M01 A3046 RMK A01 T00061007  RH  093%=      5-min Rain = 0
KPVS 080450Z 02005KT 01/M01 A3046 RMK A01 T00061007  RH  092%=      5-min Rain = 0
KPVS 080455Z 02004KT 01/M01 A3046 RMK A01 T00051008  RH  092%=      5-min Rain = 0
KPVS 080500Z 02004KT 01/M01 A3046 RMK A01 T00051009  RH  092%=      5-min Rain = 0
KPVS 080505Z 02004KT 01/M01 A3046 RMK A01 T00051009  RH  091%=      5-min Rain = 0
KPVS 080510Z 02004KT 01/M01 A3046 RMK A01 T00051010  RH  091%=      5-min Rain = 0
KPVS 080515Z 03004KT 01/M01 A3046 RMK A01 T00051010  RH  090%=      5-min Rain = 0
KPVS 080520Z 03002KT 01/M01 A3045 RMK A01 T00051011  RH  090%=      5-min Rain = 0
KPVS 080525Z 04004KT 01/M01 A3045 RMK A01 T00051013  RH  089%=      5-min Rain = 0
KPVS 080530Z 04003KT 00/M02 A3045 RMK A01 T00041015  RH  088%=      5-min Rain = 0
KPVS 080535Z 02003KT 00/M02 A3045 RMK A01 T00041015  RH  088%=      5-min Rain = 0
KPVS 080540Z 03003KT 01/M02 A3045 RMK A01 T00051015  RH  088%=      5-min Rain = 0
KPVS 080545Z 05002KT 01/M01 A3045 RMK A01 T00051014  RH  088%=      5-min Rain = 0
KPVS 080550Z 03003KT 01/M01 A3045 RMK A01 T00051014  RH  088%=      5-min Rain = 0
KPVS 080555Z 02002KT 00/M02 A3045 RMK A01 T00041015  RH  088%=      5-min Rain = 0

Page generated in 0.0152 seconds.